Terminal Aerodrome Forecast
Issued by NWS

Home | Current Version | Previous Version | Text Only | Print | Product List | Glossary On
Versions: 1 2 3 4 5 6 7 8 9 10 11 12 13 14 15 16
000
FTUS46 KSEW 130330 AAB
TAFCLM
TAF AMD
KCLM 130330Z 1304/1324 23004KT P6SM SCT025 BKN050
      TEMPO 1306/1310 3SM BR BKN020 OVC050
     FM131000 23004KT 3SM BR SCT020 SCT050
     FM131800 VRB04KT P6SM SCT050 SCT200=

USA.gov is the U.S. government's official web portal to all federal, state and local government web resources and services.